ESSV/VBY METAR and TAF weather

Enter ICAO airport designator
Station Type Date Time Source
ESSV METAR 2019/12/14 05:50 UTC NOAA

ESSV 140550Z AUTO 14012KT 9999 BKN013/// BKN024/// OVC055/// 04/03 Q0987


Station Type Date Time Source
ESSV Decoded METAR 2019/12/14 05:50 UTC NOAA

Visby Flygplats, Sweden (ESSV) 57-40N 018-21E 47M
Dec 14, 2019 - 12:50 AM EST / 2019.12.14 0550 UTC
Wind: from the SE (140 degrees) at 14 MPH (12 KT):0
Visibility: greater than 7 mile(s):0
Sky conditions: overcast
Temperature: 39 F (4 C)
Dew Point: 37 F (3 C)
Relative Humidity: 93%
Pressure (altimeter): 29.15 in. Hg (0987 hPa)
ob: ESSV 140550Z AUTO 14012KT 9999 BKN013/// BKN024/// OVC055/// 04/03 Q0987
cycle: 6

Station Type Date Time Source
ESSV TAF 2017/09/20 09:39 UTC NOAA

TAF COR TAF COR ESSV 200840Z 2009/2021 10005KT 9999 BKN030 PROB40 2009/2016 4000 TS SHRA BKN015CB

Example: see airport list